ENDU

Bardufoss Airport

Målselv, Norway
METAR ENDU 211950Z 00000KT CAVOK M22/M24 Q1011 RMK WIND 1100FT 19009KT WIND 2200FT 21007KT
Observed Flight Rules
Jan-21 @ 19:50 UTC (43 minutes ago) Visual Flight Rules
Visibility Clouds
10,000+ meters
  • Clear skies
Temperatures Readings
Current -22°C / -8°F
Dewpoint -24°C / -11°F
Humidity 84%
Altimeter 29.85" Hg
Pressure 1010.92 hPa
Elevation 79
METAR ENDU 211950Z 00000KT CAVOK M22/M24 Q1011 RMK WIND 1100FT 19009KT WIND 2200FT 21007KT
Observed Flight Rules
Jan-21 @ 19:50 UTC
(43 minutes ago)
VFR
Clouds
  • Clear skies
Temperature Dewpoint
-22°C / -8°F -24°C / -11°F
Humidity Altimeter Pressure
84% 29.85" Hg 1010.92 hPa